BAW389 EBBR-EGLL
Flight info
| Callsign | BAW389 |
|---|---|
| Flight time | 0h 47m |
| Altitude | 24000 |
| Route | HELEN L179 COA L608 LOGAN |
| Aircraft | A320/M-SDE3FGHIRWY/LB1 |
Departure
| Time | 2026-05-06 18:54 |
|---|---|
| Airport | Brussels Airport (EBBR) |
Arrival
| Time | 2026-05-06 19:41 |
|---|---|
| Airport | London Heathrow Airport (EGLL) |
| Time | Latitude | Longitude | Altitude | Speed | Heading |
|---|---|---|---|---|---|
| 2026-05-06 18:30 | 50.90069 | 4.48743 | 145 ft | 0 kts | 156° |
| 2026-05-06 18:43 | 50.90089 | 4.48727 | 144 ft | 4 kts | 149° |
| 2026-05-06 18:43 | 50.90111 | 4.48703 | 144 ft | 4 kts | 136° |
| 2026-05-06 18:44 | 50.90128 | 4.48671 | 143 ft | 4 kts | 110° |
| 2026-05-06 18:44 | 50.90130 | 4.48638 | 142 ft | 1 kts | 65° |
| 2026-05-06 18:44 | 50.90130 | 4.48637 | 142 ft | 0 kts | 65° |
| 2026-05-06 18:46 | 50.90130 | 4.48638 | 142 ft | 1 kts | 65° |
| 2026-05-06 18:46 | 50.90144 | 4.48687 | 142 ft | 7 kts | 65° |
| 2026-05-06 18:47 | 50.90168 | 4.48768 | 142 ft | 10 kts | 65° |
| 2026-05-06 18:47 | 50.90201 | 4.48879 | 142 ft | 13 kts | 65° |
| 2026-05-06 18:47 | 50.90240 | 4.49019 | 142 ft | 15 kts | 65° |
| 2026-05-06 18:47 | 50.90290 | 4.49191 | 139 ft | 19 kts | 65° |
| 2026-05-06 18:48 | 50.90331 | 4.49331 | 137 ft | 12 kts | 65° |
| 2026-05-06 18:48 | 50.90368 | 4.49464 | 136 ft | 12 kts | 71° |
| 2026-05-06 18:48 | 50.90318 | 4.49537 | 137 ft | 13 kts | 194° |
| 2026-05-06 18:48 | 50.90228 | 4.49501 | 137 ft | 14 kts | 194° |
| 2026-05-06 18:49 | 50.90126 | 4.49460 | 138 ft | 16 kts | 194° |
| 2026-05-06 18:49 | 50.90025 | 4.49419 | 142 ft | 14 kts | 195° |
| 2026-05-06 18:49 | 50.89927 | 4.49378 | 143 ft | 15 kts | 194° |
| 2026-05-06 18:49 | 50.89817 | 4.49333 | 144 ft | 17 kts | 194° |
| 2026-05-06 18:50 | 50.89696 | 4.49284 | 143 ft | 19 kts | 194° |
| 2026-05-06 18:50 | 50.89587 | 4.49208 | 143 ft | 18 kts | 215° |
| 2026-05-06 18:50 | 50.89468 | 4.49149 | 142 ft | 19 kts | 194° |
| 2026-05-06 18:50 | 50.89357 | 4.49105 | 141 ft | 17 kts | 194° |
| 2026-05-06 18:51 | 50.89290 | 4.49077 | 140 ft | 0 kts | 194° |
| 2026-05-06 18:51 | 50.89289 | 4.49077 | 140 ft | 0 kts | 194° |
| 2026-05-06 18:51 | 50.89280 | 4.49073 | 140 ft | 3 kts | 194° |
| 2026-05-06 18:52 | 50.89245 | 4.49059 | 139 ft | 7 kts | 194° |
| 2026-05-06 18:52 | 50.89185 | 4.49036 | 139 ft | 10 kts | 185° |
| 2026-05-06 18:52 | 50.89149 | 4.49099 | 141 ft | 8 kts | 74° |
| 2026-05-06 18:52 | 50.89152 | 4.49113 | 141 ft | 0 kts | 70° |
| 2026-05-06 18:53 | 50.89160 | 4.49148 | 141 ft | 17 kts | 69° |
| 2026-05-06 18:53 | 50.89286 | 4.49688 | 146 ft | 84 kts | 70° |
| 2026-05-06 18:53 | 50.89551 | 4.50834 | 143 ft | 135 kts | 70° |
| 2026-05-06 18:53 | 50.89925 | 4.52335 | 468 ft | 149 kts | 67° |
| 2026-05-06 18:54 | 50.90288 | 4.53865 | 1086 ft | 152 kts | 69° |
| 2026-05-06 18:54 | 50.90762 | 4.55396 | 1615 ft | 160 kts | 54° |
| 2026-05-06 18:54 | 50.91529 | 4.56724 | 2079 ft | 169 kts | 37° |
| 2026-05-06 18:54 | 50.92709 | 4.57189 | 2353 ft | 193 kts | 350° |
| 2026-05-06 18:55 | 50.93905 | 4.55999 | 2594 ft | 221 kts | 314° |
| 2026-05-06 18:55 | 50.94918 | 4.53964 | 2969 ft | 247 kts | 307° |
| 2026-05-06 18:55 | 50.95901 | 4.51643 | 3691 ft | 257 kts | 304° |
| 2026-05-06 18:55 | 50.96877 | 4.49246 | 4633 ft | 260 kts | 304° |
| 2026-05-06 18:56 | 50.97869 | 4.46826 | 5553 ft | 263 kts | 304° |
| 2026-05-06 18:56 | 50.98880 | 4.44400 | 6483 ft | 264 kts | 304° |
| 2026-05-06 18:56 | 50.99910 | 4.41966 | 7322 ft | 268 kts | 305° |
| 2026-05-06 18:56 | 51.00966 | 4.39499 | 8143 ft | 272 kts | 305° |
| 2026-05-06 18:57 | 51.02042 | 4.37005 | 8945 ft | 276 kts | 306° |
| 2026-05-06 18:57 | 51.03140 | 4.34468 | 9736 ft | 281 kts | 306° |
| 2026-05-06 18:57 | 51.04260 | 4.31879 | 10320 ft | 292 kts | 306° |
| 2026-05-06 18:57 | 51.05458 | 4.29117 | 10514 ft | 315 kts | 305° |
| 2026-05-06 18:58 | 51.06745 | 4.26144 | 10715 ft | 336 kts | 305° |
| 2026-05-06 18:58 | 51.08086 | 4.23037 | 11248 ft | 343 kts | 305° |
| 2026-05-06 18:58 | 51.09426 | 4.19930 | 11918 ft | 346 kts | 304° |
| 2026-05-06 18:58 | 51.10790 | 4.16761 | 12590 ft | 349 kts | 304° |
| 2026-05-06 18:59 | 51.12170 | 4.13559 | 13262 ft | 352 kts | 304° |
| 2026-05-06 18:59 | 51.13560 | 4.10328 | 13911 ft | 355 kts | 304° |
| 2026-05-06 18:59 | 51.14959 | 4.07069 | 14507 ft | 359 kts | 304° |
| 2026-05-06 18:59 | 51.16374 | 4.03770 | 15077 ft | 362 kts | 304° |
| 2026-05-06 19:00 | 51.17798 | 4.00440 | 15646 ft | 365 kts | 304° |
| 2026-05-06 19:00 | 51.19231 | 3.97077 | 16186 ft | 368 kts | 304° |
| 2026-05-06 19:00 | 51.20677 | 3.93681 | 16749 ft | 371 kts | 304° |
| 2026-05-06 19:00 | 51.21661 | 3.91372 | 17138 ft | 373 kts | 304° |
| 2026-05-06 19:01 | 51.23485 | 3.86698 | 17891 ft | 377 kts | 296° |
| 2026-05-06 19:01 | 51.24462 | 3.82791 | 18408 ft | 381 kts | 289° |
| 2026-05-06 19:01 | 51.25340 | 3.78772 | 18908 ft | 384 kts | 289° |
| 2026-05-06 19:01 | 51.26230 | 3.74732 | 19452 ft | 386 kts | 289° |
| 2026-05-06 19:02 | 51.27127 | 3.70684 | 19968 ft | 389 kts | 289° |
| 2026-05-06 19:02 | 51.28032 | 3.66596 | 20480 ft | 392 kts | 289° |
| 2026-05-06 19:02 | 51.28940 | 3.62475 | 20994 ft | 394 kts | 289° |
| 2026-05-06 19:02 | 51.29848 | 3.58337 | 21467 ft | 396 kts | 288° |
| 2026-05-06 19:03 | 51.30761 | 3.54159 | 21926 ft | 399 kts | 288° |
| 2026-05-06 19:03 | 51.31675 | 3.49963 | 22384 ft | 401 kts | 288° |
| 2026-05-06 19:03 | 51.32596 | 3.45736 | 22842 ft | 404 kts | 288° |
| 2026-05-06 19:03 | 51.33520 | 3.41479 | 23297 ft | 406 kts | 288° |
| 2026-05-06 19:04 | 51.34446 | 3.37196 | 23705 ft | 409 kts | 288° |
| 2026-05-06 19:04 | 51.35386 | 3.32898 | 23908 ft | 410 kts | 288° |
| 2026-05-06 19:04 | 51.36373 | 3.28623 | 23948 ft | 419 kts | 289° |
| 2026-05-06 19:04 | 51.37431 | 3.24195 | 23951 ft | 422 kts | 289° |
| 2026-05-06 19:05 | 51.38484 | 3.19861 | 23953 ft | 423 kts | 290° |
| 2026-05-06 19:05 | 51.39548 | 3.15467 | 23956 ft | 423 kts | 289° |
| 2026-05-06 19:05 | 51.40618 | 3.11009 | 23956 ft | 423 kts | 289° |
| 2026-05-06 19:05 | 51.41651 | 3.06660 | 23956 ft | 423 kts | 289° |
| 2026-05-06 19:06 | 51.42690 | 3.02247 | 23959 ft | 423 kts | 289° |
| 2026-05-06 19:06 | 51.43722 | 2.97835 | 23961 ft | 423 kts | 289° |
| 2026-05-06 19:06 | 51.44755 | 2.93418 | 23961 ft | 423 kts | 289° |
| 2026-05-06 19:06 | 51.45784 | 2.89005 | 23960 ft | 423 kts | 289° |
| 2026-05-06 19:07 | 51.46811 | 2.84584 | 23968 ft | 423 kts | 289° |
| 2026-05-06 19:07 | 51.47504 | 2.81596 | 23970 ft | 423 kts | 289° |
| 2026-05-06 19:07 | 51.48868 | 2.75733 | 23968 ft | 423 kts | 289° |
| 2026-05-06 19:07 | 51.49896 | 2.71317 | 23965 ft | 423 kts | 289° |
| 2026-05-06 19:08 | 51.50925 | 2.66884 | 23976 ft | 423 kts | 289° |
| 2026-05-06 19:08 | 51.51949 | 2.62462 | 23980 ft | 423 kts | 289° |
| 2026-05-06 19:08 | 51.52971 | 2.58013 | 23980 ft | 423 kts | 289° |
| 2026-05-06 19:08 | 51.53985 | 2.53581 | 23984 ft | 423 kts | 288° |
| 2026-05-06 19:09 | 51.55001 | 2.49146 | 23994 ft | 423 kts | 289° |
| 2026-05-06 19:09 | 51.56016 | 2.44717 | 23998 ft | 422 kts | 289° |
| 2026-05-06 19:09 | 51.57030 | 2.40287 | 23996 ft | 422 kts | 289° |
| 2026-05-06 19:09 | 51.58042 | 2.35855 | 23994 ft | 422 kts | 289° |
| 2026-05-06 19:10 | 51.59053 | 2.31420 | 23989 ft | 422 kts | 289° |
| 2026-05-06 19:10 | 51.60061 | 2.26991 | 23991 ft | 422 kts | 289° |
| 2026-05-06 19:10 | 51.61072 | 2.22552 | 23987 ft | 422 kts | 289° |
| 2026-05-06 19:10 | 51.62080 | 2.18106 | 23990 ft | 422 kts | 289° |
| 2026-05-06 19:11 | 51.63083 | 2.13668 | 23991 ft | 422 kts | 289° |
| 2026-05-06 19:11 | 51.64087 | 2.09213 | 23994 ft | 422 kts | 289° |
| 2026-05-06 19:11 | 51.65086 | 2.04768 | 23998 ft | 422 kts | 289° |
| 2026-05-06 19:11 | 51.66082 | 2.00337 | 23997 ft | 421 kts | 289° |
| 2026-05-06 19:12 | 51.66741 | 1.97395 | 23994 ft | 421 kts | 289° |
| 2026-05-06 19:12 | 51.67733 | 1.92950 | 23997 ft | 421 kts | 289° |
| 2026-05-06 19:12 | 51.69046 | 1.87057 | 23995 ft | 421 kts | 289° |
| 2026-05-06 19:12 | 51.70031 | 1.82617 | 23994 ft | 421 kts | 289° |
| 2026-05-06 19:13 | 51.71016 | 1.78167 | 23992 ft | 421 kts | 289° |
| 2026-05-06 19:13 | 51.71996 | 1.73730 | 23895 ft | 415 kts | 289° |
| 2026-05-06 19:13 | 51.72634 | 1.70843 | 23738 ft | 410 kts | 289° |
| 2026-05-06 19:13 | 51.73576 | 1.66521 | 23493 ft | 406 kts | 286° |
| 2026-05-06 19:14 | 51.74215 | 1.62110 | 23213 ft | 403 kts | 278° |
| 2026-05-06 19:14 | 51.74434 | 1.57623 | 22935 ft | 401 kts | 269° |
| 2026-05-06 19:14 | 51.74251 | 1.53145 | 22672 ft | 399 kts | 263° |
| 2026-05-06 19:14 | 51.73953 | 1.48710 | 22395 ft | 397 kts | 264° |
| 2026-05-06 19:15 | 51.73663 | 1.44295 | 22037 ft | 393 kts | 264° |
| 2026-05-06 19:15 | 51.73384 | 1.39941 | 21501 ft | 388 kts | 264° |
| 2026-05-06 19:15 | 51.73110 | 1.35633 | 20977 ft | 384 kts | 264° |
| 2026-05-06 19:15 | 51.72836 | 1.31377 | 20482 ft | 380 kts | 264° |
| 2026-05-06 19:16 | 51.72560 | 1.27156 | 19997 ft | 376 kts | 264° |
| 2026-05-06 19:16 | 51.72283 | 1.22980 | 19509 ft | 372 kts | 264° |
| 2026-05-06 19:16 | 51.72007 | 1.18848 | 19035 ft | 369 kts | 264° |
| 2026-05-06 19:16 | 51.71732 | 1.14746 | 18544 ft | 366 kts | 264° |
| 2026-05-06 19:17 | 51.71458 | 1.10684 | 18012 ft | 363 kts | 264° |
| 2026-05-06 19:17 | 51.71187 | 1.06670 | 17504 ft | 359 kts | 264° |
| 2026-05-06 19:17 | 51.70916 | 1.02691 | 17002 ft | 354 kts | 264° |
| 2026-05-06 19:17 | 51.70644 | 0.98764 | 16486 ft | 351 kts | 264° |
| 2026-05-06 19:18 | 51.70373 | 0.94866 | 15972 ft | 349 kts | 264° |
| 2026-05-06 19:18 | 51.70103 | 0.90960 | 15288 ft | 355 kts | 264° |
| 2026-05-06 19:18 | 51.69828 | 0.86982 | 14588 ft | 359 kts | 265° |
| 2026-05-06 19:18 | 51.69550 | 0.82977 | 13889 ft | 361 kts | 265° |
| 2026-05-06 19:19 | 51.69273 | 0.78997 | 13138 ft | 362 kts | 265° |
| 2026-05-06 19:19 | 51.68989 | 0.74967 | 12432 ft | 361 kts | 264° |
| 2026-05-06 19:19 | 51.68702 | 0.70949 | 11736 ft | 361 kts | 264° |
| 2026-05-06 19:19 | 51.68415 | 0.66949 | 11292 ft | 353 kts | 264° |
| 2026-05-06 19:20 | 51.68137 | 0.63108 | 11169 ft | 337 kts | 264° |
| 2026-05-06 19:20 | 51.67870 | 0.59444 | 11041 ft | 323 kts | 264° |
| 2026-05-06 19:20 | 51.67613 | 0.55921 | 10916 ft | 311 kts | 264° |
| 2026-05-06 19:20 | 51.67365 | 0.52512 | 10792 ft | 300 kts | 264° |
| 2026-05-06 19:21 | 51.67128 | 0.49221 | 10656 ft | 291 kts | 264° |
| 2026-05-06 19:21 | 51.66897 | 0.46010 | 10380 ft | 287 kts | 265° |
| 2026-05-06 19:21 | 51.66667 | 0.42818 | 10039 ft | 286 kts | 265° |
| 2026-05-06 19:21 | 51.66435 | 0.39616 | 9560 ft | 289 kts | 265° |
| 2026-05-06 19:22 | 51.66200 | 0.36440 | 9329 ft | 282 kts | 265° |
| 2026-05-06 19:22 | 51.65967 | 0.33316 | 8803 ft | 281 kts | 264° |
| 2026-05-06 19:22 | 51.65733 | 0.30183 | 8216 ft | 282 kts | 264° |
| 2026-05-06 19:22 | 51.65502 | 0.27094 | 8019 ft | 276 kts | 263° |
| 2026-05-06 19:23 | 51.65333 | 0.24010 | 8015 ft | 278 kts | 266° |
| 2026-05-06 19:23 | 51.65201 | 0.20934 | 8020 ft | 270 kts | 266° |
| 2026-05-06 19:23 | 51.65072 | 0.17995 | 8014 ft | 256 kts | 266° |
| 2026-05-06 19:23 | 51.64951 | 0.15199 | 8027 ft | 246 kts | 266° |
| 2026-05-06 19:24 | 51.64829 | 0.12459 | 8020 ft | 245 kts | 266° |
| 2026-05-06 19:24 | 51.64708 | 0.09731 | 8026 ft | 244 kts | 266° |
| 2026-05-06 19:24 | 51.64588 | 0.07003 | 8030 ft | 245 kts | 266° |
| 2026-05-06 19:24 | 51.64469 | 0.04302 | 8026 ft | 245 kts | 266° |
| 2026-05-06 19:25 | 51.64348 | 0.01571 | 8027 ft | 245 kts | 266° |
| 2026-05-06 19:25 | 51.64228 | -0.01160 | 8049 ft | 245 kts | 266° |
| 2026-05-06 19:25 | 51.64091 | -0.03890 | 8047 ft | 244 kts | 266° |
| 2026-05-06 19:25 | 51.63932 | -0.06591 | 8045 ft | 241 kts | 267° |
| 2026-05-06 19:26 | 51.63767 | -0.09220 | 8052 ft | 233 kts | 266° |
| 2026-05-06 19:26 | 51.63609 | -0.11794 | 8046 ft | 232 kts | 266° |
| 2026-05-06 19:26 | 51.63434 | -0.14363 | 8057 ft | 231 kts | 266° |
| 2026-05-06 19:26 | 51.63256 | -0.16930 | 8058 ft | 231 kts | 266° |
| 2026-05-06 19:27 | 51.63087 | -0.19506 | 8050 ft | 232 kts | 266° |
| 2026-05-06 19:27 | 51.62927 | -0.22096 | 8055 ft | 231 kts | 266° |
| 2026-05-06 19:27 | 51.62755 | -0.24670 | 8049 ft | 232 kts | 265° |
| 2026-05-06 19:27 | 51.62598 | -0.27256 | 8051 ft | 232 kts | 266° |
| 2026-05-06 19:28 | 51.62445 | -0.29840 | 8061 ft | 232 kts | 266° |
| 2026-05-06 19:28 | 51.62290 | -0.32423 | 8062 ft | 231 kts | 267° |
| 2026-05-06 19:28 | 51.62121 | -0.34995 | 7997 ft | 231 kts | 266° |
| 2026-05-06 19:28 | 51.61960 | -0.37588 | 8009 ft | 237 kts | 266° |
| 2026-05-06 19:29 | 51.61789 | -0.40258 | 8000 ft | 241 kts | 266° |
| 2026-05-06 19:29 | 51.61607 | -0.42939 | 8005 ft | 241 kts | 266° |
| 2026-05-06 19:29 | 51.61428 | -0.45633 | 8007 ft | 243 kts | 267° |
| 2026-05-06 19:29 | 51.61259 | -0.48342 | 7992 ft | 243 kts | 268° |
| 2026-05-06 19:30 | 51.61083 | -0.51042 | 7999 ft | 242 kts | 265° |
| 2026-05-06 19:30 | 51.60918 | -0.53743 | 7878 ft | 242 kts | 266° |
| 2026-05-06 19:30 | 51.60762 | -0.56436 | 7596 ft | 241 kts | 266° |
| 2026-05-06 19:30 | 51.60599 | -0.59109 | 7319 ft | 240 kts | 266° |
| 2026-05-06 19:31 | 51.60428 | -0.61769 | 7070 ft | 238 kts | 266° |
| 2026-05-06 19:31 | 51.60269 | -0.64424 | 6821 ft | 238 kts | 266° |
| 2026-05-06 19:31 | 51.59943 | -0.69656 | 6422 ft | 229 kts | 266° |
| 2026-05-06 19:32 | 51.59785 | -0.72149 | 6196 ft | 225 kts | 265° |
| 2026-05-06 19:32 | 51.59636 | -0.74646 | 5764 ft | 224 kts | 266° |
| 2026-05-06 19:32 | 51.59482 | -0.77136 | 5308 ft | 223 kts | 266° |
| 2026-05-06 19:32 | 51.59337 | -0.79613 | 5006 ft | 221 kts | 266° |
| 2026-05-06 19:33 | 51.59012 | -0.82029 | 5003 ft | 221 kts | 244° |
| 2026-05-06 19:33 | 51.58236 | -0.84129 | 4998 ft | 217 kts | 237° |
| 2026-05-06 19:33 | 51.57379 | -0.86123 | 4993 ft | 216 kts | 236° |
| 2026-05-06 19:33 | 51.56514 | -0.88092 | 4989 ft | 211 kts | 237° |
| 2026-05-06 19:34 | 51.55664 | -0.89955 | 4851 ft | 203 kts | 236° |
| 2026-05-06 19:34 | 51.54789 | -0.91682 | 4714 ft | 198 kts | 218° |
| 2026-05-06 19:34 | 51.53542 | -0.92500 | 4497 ft | 196 kts | 189° |
| 2026-05-06 19:34 | 51.52205 | -0.92394 | 4208 ft | 197 kts | 156° |
| 2026-05-06 19:35 | 51.51121 | -0.91119 | 4027 ft | 194 kts | 130° |
| 2026-05-06 19:35 | 51.50241 | -0.89468 | 3995 ft | 194 kts | 127° |
| 2026-05-06 19:35 | 51.49398 | -0.87760 | 4000 ft | 196 kts | 126° |
| 2026-05-06 19:35 | 51.48552 | -0.86042 | 3997 ft | 196 kts | 126° |
| 2026-05-06 19:36 | 51.47807 | -0.84226 | 3996 ft | 194 kts | 109° |
| 2026-05-06 19:36 | 51.47560 | -0.82161 | 3997 ft | 181 kts | 87° |
| 2026-05-06 19:36 | 51.47573 | -0.80211 | 3964 ft | 171 kts | 86° |
| 2026-05-06 19:36 | 51.47587 | -0.78321 | 3785 ft | 168 kts | 85° |
| 2026-05-06 19:37 | 51.47600 | -0.76452 | 3578 ft | 167 kts | 86° |
| 2026-05-06 19:37 | 51.47612 | -0.74597 | 3362 ft | 166 kts | 87° |
| 2026-05-06 19:37 | 51.47624 | -0.72750 | 3141 ft | 165 kts | 86° |
| 2026-05-06 19:37 | 51.47631 | -0.71527 | 2990 ft | 165 kts | 86° |
| 2026-05-06 19:38 | 51.47646 | -0.69077 | 2687 ft | 164 kts | 86° |
| 2026-05-06 19:38 | 51.47656 | -0.67254 | 2481 ft | 163 kts | 85° |
| 2026-05-06 19:38 | 51.47667 | -0.65437 | 2242 ft | 163 kts | 86° |
| 2026-05-06 19:38 | 51.47676 | -0.63648 | 2017 ft | 162 kts | 85° |
| 2026-05-06 19:39 | 51.47686 | -0.61840 | 1798 ft | 162 kts | 85° |
| 2026-05-06 19:39 | 51.47695 | -0.60027 | 1571 ft | 162 kts | 87° |
| 2026-05-06 19:39 | 51.47704 | -0.58228 | 1349 ft | 161 kts | 85° |
| 2026-05-06 19:39 | 51.47713 | -0.56443 | 1128 ft | 161 kts | 86° |
| 2026-05-06 19:40 | 51.47721 | -0.54654 | 897 ft | 159 kts | 86° |
| 2026-05-06 19:40 | 51.47729 | -0.52875 | 675 ft | 159 kts | 87° |
| 2026-05-06 19:40 | 51.47738 | -0.51114 | 499 ft | 158 kts | 86° |
| 2026-05-06 19:40 | 51.47741 | -0.49391 | 245 ft | 151 kts | 86° |
| 2026-05-06 19:41 | 51.47746 | -0.47763 | 102 ft | 141 kts | 83° |
| 2026-05-06 19:41 | 51.47761 | -0.46408 | 89 ft | 98 kts | 89° |
| 2026-05-06 19:41 | 51.47764 | -0.45594 | 85 ft | 48 kts | 90° |
| 2026-05-06 19:41 | 51.47763 | -0.45293 | 86 ft | 20 kts | 92° |
| 2026-05-06 19:42 | 51.47680 | -0.45174 | 90 ft | 9 kts | 184° |
| 2026-05-06 19:42 | 51.47614 | -0.45188 | 86 ft | 11 kts | 207° |
| 2026-05-06 19:42 | 51.47596 | -0.45307 | 86 ft | 12 kts | 270° |
| 2026-05-06 19:42 | 51.47596 | -0.45459 | 86 ft | 15 kts | 269° |
| 2026-05-06 19:43 | 51.47595 | -0.45641 | 90 ft | 17 kts | 269° |
| 2026-05-06 19:43 | 51.47595 | -0.45849 | 88 ft | 20 kts | 270° |
| 2026-05-06 19:43 | 51.47594 | -0.46045 | 87 ft | 14 kts | 269° |
| 2026-05-06 19:43 | 51.47593 | -0.46217 | 86 ft | 17 kts | 270° |
| 2026-05-06 19:44 | 51.47592 | -0.46377 | 86 ft | 19 kts | 270° |
| 2026-05-06 19:44 | 51.47591 | -0.46547 | 86 ft | 16 kts | 269° |
| 2026-05-06 19:44 | 51.47591 | -0.46735 | 86 ft | 18 kts | 269° |
| 2026-05-06 19:44 | 51.47583 | -0.46950 | 89 ft | 20 kts | 270° |
| 2026-05-06 19:45 | 51.47581 | -0.47185 | 89 ft | 19 kts | 269° |
| 2026-05-06 19:45 | 51.47581 | -0.47417 | 88 ft | 22 kts | 270° |
| 2026-05-06 19:45 | 51.47580 | -0.47632 | 90 ft | 20 kts | 269° |
| 2026-05-06 19:45 | 51.47579 | -0.47872 | 90 ft | 23 kts | 270° |
| 2026-05-06 19:46 | 51.47579 | -0.48096 | 88 ft | 16 kts | 270° |
| 2026-05-06 19:46 | 51.47578 | -0.48285 | 88 ft | 18 kts | 270° |
| 2026-05-06 19:46 | 51.47571 | -0.48443 | 86 ft | 12 kts | 244° |
| 2026-05-06 19:46 | 51.47486 | -0.48474 | 86 ft | 14 kts | 179° |
| 2026-05-06 19:47 | 51.47378 | -0.48472 | 87 ft | 17 kts | 179° |
| 2026-05-06 19:47 | 51.47298 | -0.48472 | 88 ft | 2 kts | 180° |
| 2026-05-06 19:47 | 51.47272 | -0.48472 | 90 ft | 5 kts | 181° |
| 2026-05-06 19:47 | 51.47237 | -0.48484 | 87 ft | 6 kts | 172° |
| 2026-05-06 19:48 | 51.47194 | -0.48495 | 90 ft | 7 kts | 234° |
| 2026-05-06 19:48 | 51.47187 | -0.48557 | 87 ft | 4 kts | 271° |
| 2026-05-06 19:48 | 51.47187 | -0.48580 | 86 ft | 2 kts | 271° |
| 2026-05-06 19:48 | 51.47187 | -0.48591 | 86 ft | 0 kts | 271° |